Terminal Aerodrome Forecast
Issued by NWS

Home | Current Version | Previous Version | Text Only | Print | Product List | Glossary On
Versions: 1 2 3 4 5 6 7 8 9 10 11 12 13 14
000
FTUS44 KLZK 181730
TAFLIT
TAF
KLIT 181730Z 1818/1918 17010KT P6SM SKC
     FM182330 VRB02KT P6SM SCT250
      TEMPO 1910/1913 5SM BR
     FM191430 14004KT P6SM SKC=

USA.gov is the U.S. government's official web portal to all federal, state and local government web resources and services.